sensor_id;sensor_type;location;lat;lon;timestamp;pressure;altitude;pressure_sealevel;temperature;humidity
8298;BME280;4187;42.778;23.242;2023-07-02T00:01:50;94650.97;;;18.49;100.00
8298;BME280;4187;42.778;23.242;2023-07-02T00:04:17;94661.63;;;18.56;100.00
8298;BME280;4187;42.778;23.242;2023-07-02T00:06:46;94651.78;;;18.49;100.00
8298;BME280;4187;42.778;23.242;2023-07-02T00:09:14;94655.47;;;18.42;100.00
8298;BME280;4187;42.778;23.242;2023-07-02T00:11:43;94650.34;;;18.34;100.00
8298;BME280;4187;42.778;23.242;2023-07-02T00:14:12;94645.41;;;18.18;100.00
8298;BME280;4187;42.778;23.242;2023-07-02T00:16:43;94638.84;;;17.94;100.00
8298;BME280;4187;42.778;23.242;2023-07-02T00:19:10;94638.84;;;17.87;100.00
8298;BME280;4187;42.778;23.242;2023-07-02T00:21:38;94650.38;;;17.95;100.00
8298;BME280;4187;42.778;23.242;2023-07-02T00:24:07;94651.38;;;17.87;100.00
8298;BME280;4187;42.778;23.242;2023-07-02T00:26:35;94654.84;;;17.87;100.00
8298;BME280;4187;42.778;23.242;2023-07-02T00:29:03;94656.09;;;17.85;100.00
8298;BME280;4187;42.778;23.242;2023-07-02T00:31:31;94653.00;;;17.88;100.00
8298;BME280;4187;42.778;23.242;2023-07-02T00:33:59;94647.25;;;17.71;100.00
8298;BME280;4187;42.778;23.242;2023-07-02T00:36:27;94663.47;;;17.70;100.00
8298;BME280;4187;42.778;23.242;2023-07-02T00:38:54;94666.34;;;17.68;100.00
8298;BME280;4187;42.778;23.242;2023-07-02T00:41:22;94667.56;;;17.66;100.00
8298;BME280;4187;42.778;23.242;2023-07-02T00:43:49;94674.94;;;17.57;100.00
8298;BME280;4187;42.778;23.242;2023-07-02T00:46:20;94680.41;;;17.49;100.00
8298;BME280;4187;42.778;23.242;2023-07-02T00:48:48;94685.56;;;17.51;100.00
8298;BME280;4187;42.778;23.242;2023-07-02T00:51:17;94680.63;;;17.48;100.00
8298;BME280;4187;42.778;23.242;2023-07-02T00:53:44;94677.97;;;17.48;100.00
8298;BME280;4187;42.778;23.242;2023-07-02T00:56:12;94670.38;;;17.51;100.00
8298;BME280;4187;42.778;23.242;2023-07-02T00:58:43;94685.00;;;17.62;100.00
8298;BME280;4187;42.778;23.242;2023-07-02T01:01:14;94684.00;;;17.69;100.00
8298;BME280;4187;42.778;23.242;2023-07-02T01:03:52;94679.88;;;17.73;100.00
8298;BME280;4187;42.778;23.242;2023-07-02T01:06:22;94665.94;;;17.71;100.00
8298;BME280;4187;42.778;23.242;2023-07-02T01:08:52;94658.53;;;17.60;100.00
8298;BME280;4187;42.778;23.242;2023-07-02T01:11:22;94665.94;;;17.78;100.00
8298;BME280;4187;42.778;23.242;2023-07-02T01:13:53;94662.06;;;17.80;100.00
8298;BME280;4187;42.778;23.242;2023-07-02T01:16:22;94646.41;;;17.71;100.00
8298;BME280;4187;42.778;23.242;2023-07-02T01:18:49;94661.84;;;17.88;100.00
8298;BME280;4187;42.778;23.242;2023-07-02T01:21:21;94665.13;;;17.90;100.00
8298;BME280;4187;42.778;23.242;2023-07-02T01:23:50;94664.94;;;17.99;100.00
8298;BME280;4187;42.778;23.242;2023-07-02T01:26:17;94656.72;;;18.00;100.00
8298;BME280;4187;42.778;23.242;2023-07-02T01:28:44;94635.78;;;17.97;100.00
8298;BME280;4187;42.778;23.242;2023-07-02T01:31:11;94645.22;;;18.13;100.00
8298;BME280;4187;42.778;23.242;2023-07-02T01:33:38;94617.47;;;18.01;100.00
8298;BME280;4187;42.778;23.242;2023-07-02T01:36:06;94651.56;;;18.25;100.00
8298;BME280;4187;42.778;23.242;2023-07-02T01:38:34;94660.03;;;18.22;100.00
8298;BME280;4187;42.778;23.242;2023-07-02T01:41:01;94664.72;;;18.20;100.00
8298;BME280;4187;42.778;23.242;2023-07-02T01:43:27;94639.25;;;18.24;100.00
8298;BME280;4187;42.778;23.242;2023-07-02T01:45:54;94632.66;;;18.20;100.00
8298;BME280;4187;42.778;23.242;2023-07-02T01:48:22;94650.34;;;18.27;100.00
8298;BME280;4187;42.778;23.242;2023-07-02T01:50:49;94651.16;;;18.28;100.00
8298;BME280;4187;42.778;23.242;2023-07-02T01:53:18;94617.06;;;18.17;100.00
8298;BME280;4187;42.778;23.242;2023-07-02T01:55:46;94633.88;;;18.30;100.00
8298;BME280;4187;42.778;23.242;2023-07-02T01:58:14;94634.53;;;18.26;100.00
8298;BME280;4187;42.778;23.242;2023-07-02T02:00:41;94626.13;;;18.16;100.00
8298;BME280;4187;42.778;23.242;2023-07-02T02:03:08;94615.44;;;18.09;100.00
8298;BME280;4187;42.778;23.242;2023-07-02T02:05:34;94620.38;;;18.06;100.00
8298;BME280;4187;42.778;23.242;2023-07-02T02:08:01;94626.72;;;17.98;100.00
8298;BME280;4187;42.778;23.242;2023-07-02T02:10:28;94621.81;;;17.88;100.00
8298;BME280;4187;42.778;23.242;2023-07-02T02:12:56;94620.97;;;17.88;100.00
8298;BME280;4187;42.778;23.242;2023-07-02T02:15:23;94620.56;;;17.84;100.00
8298;BME280;4187;42.778;23.242;2023-07-02T02:17:50;94609.91;;;17.78;100.00
8298;BME280;4187;42.778;23.242;2023-07-02T02:20:17;94607.22;;;17.78;100.00
8298;BME280;4187;42.778;23.242;2023-07-02T02:22:44;94596.34;;;17.86;100.00
8298;BME280;4187;42.778;23.242;2023-07-02T02:25:11;94599.03;;;17.86;100.00
8298;BME280;4187;42.778;23.242;2023-07-02T02:27:39;94600.06;;;17.91;100.00
8298;BME280;4187;42.778;23.242;2023-07-02T02:30:08;94594.72;;;17.91;100.00
8298;BME280;4187;42.778;23.242;2023-07-02T02:32:35;94571.50;;;17.85;100.00
8298;BME280;4187;42.778;23.242;2023-07-02T02:35:03;94565.72;;;17.95;100.00
8298;BME280;4187;42.778;23.242;2023-07-02T02:37:30;94578.69;;;17.91;100.00
8298;BME280;4187;42.778;23.242;2023-07-02T02:39:57;94583.44;;;17.89;100.00
8298;BME280;4187;42.778;23.242;2023-07-02T02:42:25;94580.34;;;17.73;100.00
8298;BME280;4187;42.778;23.242;2023-07-02T02:44:51;94593.47;;;17.61;100.00
8298;BME280;4187;42.778;23.242;2023-07-02T02:47:20;94600.66;;;17.67;100.00
8298;BME280;4187;42.778;23.242;2023-07-02T02:49:47;94603.72;;;17.71;100.00
8298;BME280;4187;42.778;23.242;2023-07-02T02:52:14;94610.31;;;17.75;100.00
8298;BME280;4187;42.778;23.242;2023-07-02T02:54:41;94603.72;;;17.71;100.00
8298;BME280;4187;42.778;23.242;2023-07-02T02:57:07;94606.81;;;17.74;100.00
8298;BME280;4187;42.778;23.242;2023-07-02T02:59:34;94611.75;;;17.77;100.00
8298;BME280;4187;42.778;23.242;2023-07-02T03:02:01;94577.88;;;17.58;100.00
8298;BME280;4187;42.778;23.242;2023-07-02T03:04:29;94625.72;;;17.73;100.00
8298;BME280;4187;42.778;23.242;2023-07-02T03:06:56;94624.03;;;17.65;100.00
8298;BME280;4187;42.778;23.242;2023-07-02T03:09:23;94563.25;;;17.41;100.00
8298;BME280;4187;42.778;23.242;2023-07-02T03:11:50;94607.44;;;17.70;100.00
8298;BME280;4187;42.778;23.242;2023-07-02T03:14:17;94618.28;;;17.68;100.00
8298;BME280;4187;42.778;23.242;2023-07-02T03:16:45;94643.38;;;17.80;100.00
8298;BME280;4187;42.778;23.242;2023-07-02T03:19:12;94643.78;;;17.84;100.00
8298;BME280;4187;42.778;23.242;2023-07-02T03:21:43;94636.59;;;17.78;100.00
8298;BME280;4187;42.778;23.242;2023-07-02T03:24:10;94644.16;;;17.74;100.00
8298;BME280;4187;42.778;23.242;2023-07-02T03:26:38;94649.72;;;17.79;100.00
8298;BME280;4187;42.778;23.242;2023-07-02T03:29:06;94648.31;;;17.83;100.00
8298;BME280;4187;42.778;23.242;2023-07-02T03:31:33;94649.34;;;17.89;100.00
8298;BME280;4187;42.778;23.242;2023-07-02T03:34:02;94643.16;;;17.95;100.00
8298;BME280;4187;42.778;23.242;2023-07-02T03:36:29;94630.22;;;17.99;100.00
8298;BME280;4187;42.778;23.242;2023-07-02T03:38:58;94636.78;;;18.09;100.00
8298;BME280;4187;42.778;23.242;2023-07-02T03:41:25;94630.41;;;18.17;100.00
8298;BME280;4187;42.778;23.242;2023-07-02T03:43:52;94624.84;;;18.25;100.00
8298;BME280;4187;42.778;23.242;2023-07-02T03:46:19;94634.34;;;18.27;100.00
8298;BME280;4187;42.778;23.242;2023-07-02T03:48:46;94628.13;;;18.33;100.00
8298;BME280;4187;42.778;23.242;2023-07-02T03:51:13;94623.84;;;18.32;100.00
8298;BME280;4187;42.778;23.242;2023-07-02T03:53:40;94635.97;;;18.35;100.00
8298;BME280;4187;42.778;23.242;2023-07-02T04:18:05;94661.50;;;19.08;100.00
8298;BME280;4187;42.778;23.242;2023-07-02T04:20:32;94672.97;;;19.66;100.00
8298;BME280;4187;42.778;23.242;2023-07-02T04:22:59;94677.66;;;20.08;100.00
8298;BME280;4187;42.778;23.242;2023-07-02T04:25:26;94689.88;;;20.22;100.00
8298;BME280;4187;42.778;23.242;2023-07-02T04:27:53;94688.22;;;20.28;100.00
8298;BME280;4187;42.778;23.242;2023-07-02T04:30:22;94691.44;;;20.37;100.00
8298;BME280;4187;42.778;23.242;2023-07-02T04:32:49;94664.94;;;20.28;100.00
8298;BME280;4187;42.778;23.242;2023-07-02T04:35:17;94707.38;;;20.56;100.00
8298;BME280;4187;42.778;23.242;2023-07-02T04:37:44;94706.38;;;20.51;100.00
8298;BME280;4187;42.778;23.242;2023-07-02T04:40:11;94691.97;;;20.27;100.00
8298;BME280;4187;42.778;23.242;2023-07-02T04:42:41;94694.47;;;20.15;100.00
8298;BME280;4187;42.778;23.242;2023-07-02T04:45:13;94712.00;;;20.11;100.00
8298;BME280;4187;42.778;23.242;2023-07-02T04:47:40;94709.06;;;19.95;100.00
8298;BME280;4187;42.778;23.242;2023-07-02T04:50:08;94707.88;;;19.84;100.00
8298;BME280;4187;42.778;23.242;2023-07-02T04:52:36;94690.09;;;19.58;100.00
8298;BME280;4187;42.778;23.242;2023-07-02T04:55:03;94706.16;;;19.65;100.00
8298;BME280;4187;42.778;23.242;2023-07-02T04:57:30;94713.59;;;19.50;100.00
8298;BME280;4187;42.778;23.242;2023-07-02T04:59:57;94708.13;;;19.32;100.00
8298;BME280;4187;42.778;23.242;2023-07-02T05:02:24;94708.53;;;19.29;100.00
8298;BME280;4187;42.778;23.242;2023-07-02T05:04:51;94703.59;;;19.26;100.00
8298;BME280;4187;42.778;23.242;2023-07-02T05:07:18;94704.41;;;19.33;100.00
8298;BME280;4187;42.778;23.242;2023-07-02T05:09:46;94715.50;;;19.36;100.00
8298;BME280;4187;42.778;23.242;2023-07-02T05:12:14;94707.69;;;19.35;100.00
8298;BME280;4187;42.778;23.242;2023-07-02T05:14:40;94712.59;;;19.44;100.00
8298;BME280;4187;42.778;23.242;2023-07-02T05:17:07;94707.25;;;19.51;100.00
8298;BME280;4187;42.778;23.242;2023-07-02T05:19:34;94698.72;;;19.60;100.00
8298;BME280;4187;42.778;23.242;2023-07-02T05:22:01;94708.00;;;19.64;100.00
8298;BME280;4187;42.778;23.242;2023-07-02T05:24:28;94702.25;;;19.61;100.00
8298;BME280;4187;42.778;23.242;2023-07-02T05:26:56;94705.25;;;19.71;100.00
8298;BME280;4187;42.778;23.242;2023-07-02T05:29:23;94709.75;;;19.77;100.00
8298;BME280;4187;42.778;23.242;2023-07-02T05:31:49;94711.16;;;19.86;100.00
8298;BME280;4187;42.778;23.242;2023-07-02T05:34:16;94707.91;;;19.78;100.00
8298;BME280;4187;42.778;23.242;2023-07-02T05:36:43;94720.63;;;19.89;100.00
8298;BME280;4187;42.778;23.242;2023-07-02T05:39:10;94706.41;;;19.88;100.00
8298;BME280;4187;42.778;23.242;2023-07-02T05:41:37;94725.13;;;19.95;100.00
8298;BME280;4187;42.778;23.242;2023-07-02T05:44:06;94726.56;;;19.97;100.00
8298;BME280;4187;42.778;23.242;2023-07-02T05:46:32;94737.25;;;19.97;100.00
8298;BME280;4187;42.778;23.242;2023-07-02T05:48:59;94734.88;;;19.83;100.00
8298;BME280;4187;42.778;23.242;2023-07-02T05:51:26;94743.75;;;19.77;100.00
8298;BME280;4187;42.778;23.242;2023-07-02T05:53:53;94743.91;;;19.82;100.00
8298;BME280;4187;42.778;23.242;2023-07-02T05:56:19;94735.13;;;19.68;100.00
8298;BME280;4187;42.778;23.242;2023-07-02T05:58:46;94739.88;;;19.66;100.00
8298;BME280;4187;42.778;23.242;2023-07-02T06:01:17;94735.13;;;19.75;100.00
8298;BME280;4187;42.778;23.242;2023-07-02T06:03:44;94736.28;;;19.85;100.00
8298;BME280;4187;42.778;23.242;2023-07-02T06:06:11;94718.41;;;19.79;100.00
8298;BME280;4187;42.778;23.242;2023-07-02T06:08:38;94731.94;;;19.91;100.00
8298;BME280;4187;42.778;23.242;2023-07-02T06:11:05;94707.44;;;19.87;100.00
8298;BME280;4187;42.778;23.242;2023-07-02T06:13:31;94722.63;;;20.00;100.00
8298;BME280;4187;42.778;23.242;2023-07-02T06:15:58;94711.47;;;20.03;100.00
8298;BME280;4187;42.778;23.242;2023-07-02T06:18:26;94727.13;;;20.06;100.00
8298;BME280;4187;42.778;23.242;2023-07-02T06:20:53;94724.53;;;20.17;100.00
8298;BME280;4187;42.778;23.242;2023-07-02T06:23:20;94725.53;;;20.23;100.00
8298;BME280;4187;42.778;23.242;2023-07-02T06:25:47;94715.00;;;20.28;100.00
8298;BME280;4187;42.778;23.242;2023-07-02T06:28:14;94724.00;;;20.40;100.00
8298;BME280;4187;42.778;23.242;2023-07-02T06:30:41;94721.44;;;20.52;100.00
8298;BME280;4187;42.778;23.242;2023-07-02T06:33:08;94712.22;;;20.66;100.00
8298;BME280;4187;42.778;23.242;2023-07-02T06:35:36;94721.13;;;20.84;100.00
8298;BME280;4187;42.778;23.242;2023-07-02T06:38:03;94717.34;;;20.92;100.00
8298;BME280;4187;42.778;23.242;2023-07-02T06:40:29;94729.25;;;20.96;100.00
8298;BME280;4187;42.778;23.242;2023-07-02T06:42:56;94728.16;;;21.04;100.00
8298;BME280;4187;42.778;23.242;2023-07-02T06:45:23;94729.56;;;21.06;100.00
8298;BME280;4187;42.778;23.242;2023-07-02T06:47:50;94721.94;;;21.10;100.00
8298;BME280;4187;42.778;23.242;2023-07-02T06:50:16;94734.31;;;21.11;100.00
8298;BME280;4187;42.778;23.242;2023-07-02T06:52:46;94735.34;;;21.10;100.00
8298;BME280;4187;42.778;23.242;2023-07-02T06:55:13;94727.84;;;21.18;100.00
8298;BME280;4187;42.778;23.242;2023-07-02T06:57:43;94734.91;;;21.31;100.00
8298;BME280;4187;42.778;23.242;2023-07-02T07:00:11;94737.38;;;21.32;100.00
8298;BME280;4187;42.778;23.242;2023-07-02T07:02:38;94726.09;;;21.42;100.00
8298;BME280;4187;42.778;23.242;2023-07-02T07:05:06;94717.75;;;21.50;100.00
8298;BME280;4187;42.778;23.242;2023-07-02T07:07:35;94717.06;;;21.73;100.00
8298;BME280;4187;42.778;23.242;2023-07-02T07:10:04;94700.19;;;21.84;100.00
8298;BME280;4187;42.778;23.242;2023-07-02T07:12:31;94707.19;;;22.15;100.00
8298;BME280;4187;42.778;23.242;2023-07-02T07:14:58;94703.63;;;22.32;100.00
8298;BME280;4187;42.778;23.242;2023-07-02T07:17:25;94704.03;;;22.82;100.00
8298;BME280;4187;42.778;23.242;2023-07-02T07:19:52;94693.75;;;23.02;100.00
8298;BME280;4187;42.778;23.242;2023-07-02T07:22:19;94696.56;;;23.07;100.00
8298;BME280;4187;42.778;23.242;2023-07-02T07:24:46;94691.75;;;23.09;100.00
8298;BME280;4187;42.778;23.242;2023-07-02T07:27:14;94716.06;;;23.26;100.00
8298;BME280;4187;42.778;23.242;2023-07-02T07:29:41;94706.81;;;23.34;100.00
8298;BME280;4187;42.778;23.242;2023-07-02T07:32:10;94701.53;;;23.50;100.00
8298;BME280;4187;42.778;23.242;2023-07-02T07:34:37;94705.31;;;23.77;100.00
8298;BME280;4187;42.778;23.242;2023-07-02T07:37:04;94718.81;;;24.06;100.00
8298;BME280;4187;42.778;23.242;2023-07-02T07:39:31;94699.41;;;24.20;100.00
8298;BME280;4187;42.778;23.242;2023-07-02T07:41:58;94706.16;;;24.51;100.00
8298;BME280;4187;42.778;23.242;2023-07-02T07:44:26;94717.72;;;24.80;100.00
8298;BME280;4187;42.778;23.242;2023-07-02T07:46:54;94707.06;;;24.90;100.00
8298;BME280;4187;42.778;23.242;2023-07-02T07:49:21;94717.75;;;25.18;100.00
8298;BME280;4187;42.778;23.242;2023-07-02T07:51:48;94718.53;;;25.52;100.00
8298;BME280;4187;42.778;23.242;2023-07-02T07:54:15;94717.56;;;25.63;100.00
8298;BME280;4187;42.778;23.242;2023-07-02T07:56:42;94727.00;;;25.82;100.00
8298;BME280;4187;42.778;23.242;2023-07-02T07:59:09;94731.28;;;26.00;100.00
8298;BME280;4187;42.778;23.242;2023-07-02T08:01:41;94719.03;;;26.14;100.00
8298;BME280;4187;42.778;23.242;2023-07-02T08:04:08;94734.28;;;26.03;100.00
8298;BME280;4187;42.778;23.242;2023-07-02T08:06:35;94743.72;;;25.79;100.00
8298;BME280;4187;42.778;23.242;2023-07-02T08:09:02;94741.28;;;25.56;100.00
8298;BME280;4187;42.778;23.242;2023-07-02T08:11:29;94737.63;;;25.29;100.00
8298;BME280;4187;42.778;23.242;2023-07-02T08:13:57;94741.63;;;25.26;100.00
8298;BME280;4187;42.778;23.242;2023-07-02T08:16:24;94734.03;;;25.07;100.00
8298;BME280;4187;42.778;23.242;2023-07-02T08:18:52;94725.31;;;24.83;100.00
8298;BME280;4187;42.778;23.242;2023-07-02T08:21:19;94716.47;;;24.71;100.00
8298;BME280;4187;42.778;23.242;2023-07-02T08:23:46;94712.63;;;24.67;100.00
8298;BME280;4187;42.778;23.242;2023-07-02T08:26:13;94720.56;;;24.57;100.00
8298;BME280;4187;42.778;23.242;2023-07-02T08:28:40;94716.59;;;24.48;100.00
8298;BME280;4187;42.778;23.242;2023-07-02T08:31:06;94723.81;;;24.59;100.00
8298;BME280;4187;42.778;23.242;2023-07-02T08:33:33;94729.97;;;24.71;100.00
8298;BME280;4187;42.778;23.242;2023-07-02T08:36:02;94718.75;;;24.95;100.00
8298;BME280;4187;42.778;23.242;2023-07-02T08:38:28;94725.50;;;25.31;100.00
8298;BME280;4187;42.778;23.242;2023-07-02T08:40:56;94725.75;;;25.30;100.00
8298;BME280;4187;42.778;23.242;2023-07-02T08:43:25;94716.84;;;25.29;100.00
8298;BME280;4187;42.778;23.242;2023-07-02T08:45:52;94724.03;;;25.24;100.00
8298;BME280;4187;42.778;23.242;2023-07-02T08:48:20;94727.16;;;25.16;100.00
8298;BME280;4187;42.778;23.242;2023-07-02T08:50:49;94725.88;;;25.02;100.00
8298;BME280;4187;42.778;23.242;2023-07-02T08:53:17;94716.81;;;24.91;100.00
8298;BME280;4187;42.778;23.242;2023-07-02T08:55:44;94719.66;;;25.01;100.00
8298;BME280;4187;42.778;23.242;2023-07-02T08:58:11;94727.03;;;24.89;100.00
8298;BME280;4187;42.778;23.242;2023-07-02T09:00:37;94724.09;;;24.90;100.00
8298;BME280;4187;42.778;23.242;2023-07-02T09:03:12;94718.94;;;25.06;100.00
8298;BME280;4187;42.778;23.242;2023-07-02T09:05:48;94684.09;;;25.26;100.00
8298;BME280;4187;42.778;23.242;2023-07-02T09:08:24;94738.03;;;25.76;100.00
8298;BME280;4187;42.778;23.242;2023-07-02T09:10:51;94728.38;;;26.06;100.00
8298;BME280;4187;42.778;23.242;2023-07-02T09:13:18;94730.81;;;26.30;100.00
8298;BME280;4187;42.778;23.242;2023-07-02T09:15:45;94730.41;;;26.43;99.35
8298;BME280;4187;42.778;23.242;2023-07-02T09:18:17;94730.72;;;26.46;100.00
8298;BME280;4187;42.778;23.242;2023-07-02T09:20:45;94724.03;;;26.27;100.00
8298;BME280;4187;42.778;23.242;2023-07-02T09:23:12;94718.81;;;26.21;100.00
8298;BME280;4187;42.778;23.242;2023-07-02T09:25:40;94723.81;;;26.34;100.00
8298;BME280;4187;42.778;23.242;2023-07-02T09:28:14;94719.72;;;26.31;99.85
8298;BME280;4187;42.778;23.242;2023-07-02T09:30:52;94728.47;;;26.38;98.94
8298;BME280;4187;42.778;23.242;2023-07-02T09:33:19;94721.56;;;26.52;100.00
8298;BME280;4187;42.778;23.242;2023-07-02T09:35:47;94719.47;;;26.59;100.00
8298;BME280;4187;42.778;23.242;2023-07-02T09:38:14;94716.16;;;26.52;99.72
8298;BME280;4187;42.778;23.242;2023-07-02T09:40:46;94710.59;;;26.37;100.00
8298;BME280;4187;42.778;23.242;2023-07-02T09:43:14;94712.88;;;26.50;98.60
8298;BME280;4187;42.778;23.242;2023-07-02T09:45:43;94706.50;;;26.61;100.00
8298;BME280;4187;42.778;23.242;2023-07-02T09:48:13;94717.06;;;26.90;95.40
8298;BME280;4187;42.778;23.242;2023-07-02T09:50:41;94712.13;;;27.23;95.14
8298;BME280;4187;42.778;23.242;2023-07-02T09:53:08;94705.41;;;27.31;93.46
8298;BME280;4187;42.778;23.242;2023-07-02T09:55:36;94700.38;;;27.50;94.64
8298;BME280;4187;42.778;23.242;2023-07-02T09:58:04;94703.19;;;27.65;95.54
8298;BME280;4187;42.778;23.242;2023-07-02T10:00:31;94705.38;;;27.73;94.36
8298;BME280;4187;42.778;23.242;2023-07-02T10:02:58;94684.75;;;27.67;88.27
8298;BME280;4187;42.778;23.242;2023-07-02T10:05:26;94681.53;;;27.75;89.57
8298;BME280;4187;42.778;23.242;2023-07-02T10:07:53;94674.44;;;27.69;88.58
8298;BME280;4187;42.778;23.242;2023-07-02T10:10:28;94674.41;;;27.54;89.40
8298;BME280;4187;42.778;23.242;2023-07-02T10:12:55;94669.00;;;27.64;91.04
8298;BME280;4187;42.778;23.242;2023-07-02T10:15:27;94663.00;;;27.52;88.20
8298;BME280;4187;42.778;23.242;2023-07-02T10:17:55;94661.47;;;27.71;90.18
8298;BME280;4187;42.778;23.242;2023-07-02T10:20:32;94664.63;;;27.58;87.84
8298;BME280;4187;42.778;23.242;2023-07-02T10:23:00;94660.31;;;27.57;89.73
8298;BME280;4187;42.778;23.242;2023-07-02T10:25:29;94648.13;;;27.64;88.78
8298;BME280;4187;42.778;23.242;2023-07-02T10:27:56;94613.44;;;27.61;92.34
8298;BME280;4187;42.778;23.242;2023-07-02T10:30:33;94658.06;;;28.11;90.10
8298;BME280;4187;42.778;23.242;2023-07-02T10:33:10;94668.94;;;28.26;84.20
8298;BME280;4187;42.778;23.242;2023-07-02T10:35:38;94670.81;;;28.10;84.86
8298;BME280;4187;42.778;23.242;2023-07-02T10:38:07;94669.41;;;27.98;85.59
8298;BME280;4187;42.778;23.242;2023-07-02T10:40:33;94665.88;;;27.97;85.41
8298;BME280;4187;42.778;23.242;2023-07-02T10:43:00;94657.44;;;27.94;87.37
8298;BME280;4187;42.778;23.242;2023-07-02T10:45:35;94657.25;;;28.10;87.05
8298;BME280;4187;42.778;23.242;2023-07-02T10:48:02;94660.28;;;28.29;84.55
8298;BME280;4187;42.778;23.242;2023-07-02T10:50:31;94665.16;;;28.27;85.14
8298;BME280;4187;42.778;23.242;2023-07-02T10:52:58;94659.44;;;28.33;84.52
8298;BME280;4187;42.778;23.242;2023-07-02T10:55:26;94665.72;;;28.49;83.72
8298;BME280;4187;42.778;23.242;2023-07-02T10:58:03;94662.47;;;28.57;85.51
8298;BME280;4187;42.778;23.242;2023-07-02T11:00:31;94660.00;;;28.56;85.40
8298;BME280;4187;42.778;23.242;2023-07-02T11:02:59;94662.22;;;28.64;86.59
8298;BME280;4187;42.778;23.242;2023-07-02T11:05:26;94667.34;;;28.50;81.24
8298;BME280;4187;42.778;23.242;2023-07-02T11:07:53;94669.75;;;28.21;86.46
8298;BME280;4187;42.778;23.242;2023-07-02T11:10:23;94677.25;;;27.89;93.85
8298;BME280;4187;42.778;23.242;2023-07-02T11:12:50;94684.81;;;27.30;100.00
8298;BME280;4187;42.778;23.242;2023-07-02T11:15:17;94678.59;;;26.61;100.00
8298;BME280;4187;42.778;23.242;2023-07-02T11:17:44;94677.50;;;26.57;100.00
8298;BME280;4187;42.778;23.242;2023-07-02T11:20:14;94667.47;;;26.26;100.00
8298;BME280;4187;42.778;23.242;2023-07-02T11:22:41;94668.31;;;26.04;100.00
8298;BME280;4187;42.778;23.242;2023-07-02T11:25:10;94660.00;;;25.84;100.00
8298;BME280;4187;42.778;23.242;2023-07-02T11:27:36;94653.78;;;25.84;100.00
8298;BME280;4187;42.778;23.242;2023-07-02T11:30:04;94663.88;;;25.93;100.00
8298;BME280;4187;42.778;23.242;2023-07-02T11:32:46;94656.91;;;25.97;100.00
8298;BME280;4187;42.778;23.242;2023-07-02T11:35:15;94666.44;;;26.05;98.07
8298;BME280;4187;42.778;23.242;2023-07-02T11:37:42;94664.50;;;26.00;98.63
8298;BME280;4187;42.778;23.242;2023-07-02T11:40:11;94662.31;;;25.97;97.33
8298;BME280;4187;42.778;23.242;2023-07-02T11:42:38;94660.88;;;25.90;92.49
8298;BME280;4187;42.778;23.242;2023-07-02T11:45:06;94659.19;;;25.84;92.21
8298;BME280;4187;42.778;23.242;2023-07-02T11:47:37;94664.91;;;25.66;93.44
8298;BME280;4187;42.778;23.242;2023-07-02T11:50:05;94667.13;;;25.47;97.13
8298;BME280;4187;42.778;23.242;2023-07-02T11:52:33;94673.41;;;25.36;98.67
8298;BME280;4187;42.778;23.242;2023-07-02T11:55:00;94667.41;;;25.29;100.00
8298;BME280;4187;42.778;23.242;2023-07-02T11:57:27;94670.59;;;25.26;100.00
8298;BME280;4187;42.778;23.242;2023-07-02T11:59:54;94675.38;;;25.19;100.00
8298;BME280;4187;42.778;23.242;2023-07-02T12:02:21;94672.69;;;25.02;100.00
8298;BME280;4187;42.778;23.242;2023-07-02T12:04:48;94675.16;;;24.70;100.00
8298;BME280;4187;42.778;23.242;2023-07-02T12:07:15;94670.00;;;24.52;100.00
8298;BME280;4187;42.778;23.242;2023-07-02T12:09:43;94657.03;;;24.49;100.00
8298;BME280;4187;42.778;23.242;2023-07-02T12:12:10;94651.31;;;24.62;100.00
8298;BME280;4187;42.778;23.242;2023-07-02T12:14:37;94658.66;;;24.83;100.00
8298;BME280;4187;42.778;23.242;2023-07-02T12:17:07;94651.72;;;25.09;100.00
8298;BME280;4187;42.778;23.242;2023-07-02T12:19:34;94648.75;;;25.27;100.00
8298;BME280;4187;42.778;23.242;2023-07-02T12:22:00;94648.41;;;25.62;100.00
8298;BME280;4187;42.778;23.242;2023-07-02T12:24:27;94648.56;;;25.77;100.00
8298;BME280;4187;42.778;23.242;2023-07-02T12:26:55;94655.25;;;25.96;100.00
8298;BME280;4187;42.778;23.242;2023-07-02T12:29:22;94650.69;;;26.24;100.00
8298;BME280;4187;42.778;23.242;2023-07-02T12:31:49;94660.44;;;26.56;100.00
8298;BME280;4187;42.778;23.242;2023-07-02T12:34:16;94557.63;;;26.20;100.00
8298;BME280;4187;42.778;23.242;2023-07-02T12:36:43;94668.63;;;26.98;100.00
8298;BME280;4187;42.778;23.242;2023-07-02T12:39:10;94659.81;;;27.18;100.00
8298;BME280;4187;42.778;23.242;2023-07-02T12:41:36;94658.28;;;27.37;100.00
8298;BME280;4187;42.778;23.242;2023-07-02T12:44:05;94653.53;;;27.59;100.00
8298;BME280;4187;42.778;23.242;2023-07-02T12:46:31;94656.28;;;27.69;100.00
8298;BME280;4187;42.778;23.242;2023-07-02T12:48:58;94654.19;;;27.81;99.13
8298;BME280;4187;42.778;23.242;2023-07-02T12:51:25;94657.72;;;27.92;98.98
8298;BME280;4187;42.778;23.242;2023-07-02T12:53:52;94658.28;;;27.99;95.66
8298;BME280;4187;42.778;23.242;2023-07-02T12:56:19;94659.88;;;27.90;96.17
8298;BME280;4187;42.778;23.242;2023-07-02T12:58:45;94651.16;;;27.78;93.45
8298;BME280;4187;42.778;23.242;2023-07-02T13:01:14;94657.97;;;27.85;94.61
8298;BME280;4187;42.778;23.242;2023-07-02T13:03:44;94657.16;;;27.85;92.84
8298;BME280;4187;42.778;23.242;2023-07-02T13:06:11;94654.63;;;27.63;95.82
8298;BME280;4187;42.778;23.242;2023-07-02T13:08:38;94653.78;;;27.53;97.83
8298;BME280;4187;42.778;23.242;2023-07-02T13:11:05;94653.47;;;27.44;95.93
8298;BME280;4187;42.778;23.242;2023-07-02T13:13:32;94647.16;;;27.33;94.63
8298;BME280;4187;42.778;23.242;2023-07-02T13:15:59;94644.94;;;27.25;95.54
8298;BME280;4187;42.778;23.242;2023-07-02T13:18:27;94649.50;;;27.15;95.75
8298;BME280;4187;42.778;23.242;2023-07-02T13:20:54;94642.72;;;27.12;94.92
8298;BME280;4187;42.778;23.242;2023-07-02T13:23:21;94636.72;;;27.05;94.05
8298;BME280;4187;42.778;23.242;2023-07-02T13:25:48;94645.31;;;26.92;95.95
8298;BME280;4187;42.778;23.242;2023-07-02T13:28:14;94632.66;;;26.71;97.00